Terminal Aerodrome Forecast
Issued by NWS Blacksburg, VA

Home | Current Version | Previous Version | Text Only | Print | Product List | Glossary On
Versions: 1 2 3 4 5 6 7 8 9 10 11 12 13 14 15 16 17 18 19 20 21 22 23 24 25 26 27 28 29 30 31 32 33 34 35 36 37 38 39 40 41 42 43 44 45 46 47 48 49 50
000
FTUS41 KRNK 242338
TAFDAN
TAF
KDAN 242338Z 2500/2524 23005KT 5SM SHRA OVC008
     FM250100 11008KT 3SM SHRA OVC015
     FM250700 VRB03KT 4SM BR BKN015
     FM251400 25006KT P6SM BKN060
     FM251900 24011KT P6SM VCSH BKN060
     FM252300 24010KT P6SM BKN060=

USA.gov is the U.S. government's official web portal to all federal, state and local government web resources and services.